sensor_id;sensor_type;location;lat;lon;timestamp;temperature;humidity
8313;DHT22;4194;43.408;24.626;2023-04-25T00:01:15;13.10;99.90
8313;DHT22;4194;43.408;24.626;2023-04-25T00:03:41;13.20;99.90
8313;DHT22;4194;43.408;24.626;2023-04-25T00:06:07;13.00;99.90
8313;DHT22;4194;43.408;24.626;2023-04-25T00:08:33;14.80;99.90
8313;DHT22;4194;43.408;24.626;2023-04-25T00:11:00;13.40;99.90
8313;DHT22;4194;43.408;24.626;2023-04-25T00:13:25;13.40;99.90
8313;DHT22;4194;43.408;24.626;2023-04-25T00:15:52;13.30;99.90
8313;DHT22;4194;43.408;24.626;2023-04-25T00:18:22;13.80;99.90
8313;DHT22;4194;43.408;24.626;2023-04-25T00:20:48;13.20;99.90
8313;DHT22;4194;43.408;24.626;2023-04-25T00:23:15;13.20;99.90
8313;DHT22;4194;43.408;24.626;2023-04-25T00:25:43;13.30;99.90
8313;DHT22;4194;43.408;24.626;2023-04-25T00:28:09;13.30;99.90
8313;DHT22;4194;43.408;24.626;2023-04-25T00:30:35;13.30;99.90
8313;DHT22;4194;43.408;24.626;2023-04-25T00:33:01;13.20;99.90
8313;DHT22;4194;43.408;24.626;2023-04-25T00:35:27;13.20;99.90
8313;DHT22;4194;43.408;24.626;2023-04-25T00:40:18;13.30;99.90
8313;DHT22;4194;43.408;24.626;2023-04-25T00:42:45;13.30;99.90
8313;DHT22;4194;43.408;24.626;2023-04-25T00:45:14;13.20;99.90
8313;DHT22;4194;43.408;24.626;2023-04-25T00:47:42;12.60;99.90
8313;DHT22;4194;43.408;24.626;2023-04-25T00:50:09;13.80;99.90
8313;DHT22;4194;43.408;24.626;2023-04-25T00:52:35;13.80;99.90
8313;DHT22;4194;43.408;24.626;2023-04-25T00:55:01;13.10;99.90
8313;DHT22;4194;43.408;24.626;2023-04-25T00:57:27;13.30;99.90
8313;DHT22;4194;43.408;24.626;2023-04-25T00:59:54;14.00;99.90
8313;DHT22;4194;43.408;24.626;2023-04-25T01:02:20;13.70;99.90
8313;DHT22;4194;43.408;24.626;2023-04-25T01:04:46;13.30;99.90
8313;DHT22;4194;43.408;24.626;2023-04-25T01:07:12;13.30;99.90
8313;DHT22;4194;43.408;24.626;2023-04-25T01:09:38;13.60;99.90
8313;DHT22;4194;43.408;24.626;2023-04-25T01:12:05;14.40;99.90
8313;DHT22;4194;43.408;24.626;2023-04-25T01:14:31;13.70;99.90
8313;DHT22;4194;43.408;24.626;2023-04-25T01:16:56;12.60;99.90
8313;DHT22;4194;43.408;24.626;2023-04-25T01:19:23;14.10;99.90
8313;DHT22;4194;43.408;24.626;2023-04-25T01:21:49;13.30;99.90
8313;DHT22;4194;43.408;24.626;2023-04-25T01:24:15;13.30;99.90
8313;DHT22;4194;43.408;24.626;2023-04-25T01:26:42;13.40;99.90
8313;DHT22;4194;43.408;24.626;2023-04-25T01:29:19;13.30;99.90
8313;DHT22;4194;43.408;24.626;2023-04-25T01:31:45;13.20;99.90
8313;DHT22;4194;43.408;24.626;2023-04-25T01:34:12;14.70;99.90
8313;DHT22;4194;43.408;24.626;2023-04-25T01:36:38;13.20;99.90
8313;DHT22;4194;43.408;24.626;2023-04-25T01:39:04;13.20;99.90
8313;DHT22;4194;43.408;24.626;2023-04-25T01:41:30;13.20;99.90
8313;DHT22;4194;43.408;24.626;2023-04-25T01:43:56;12.40;99.90
8313;DHT22;4194;43.408;24.626;2023-04-25T01:46:22;13.40;99.90
8313;DHT22;4194;43.408;24.626;2023-04-25T01:48:48;13.20;99.90
8313;DHT22;4194;43.408;24.626;2023-04-25T01:51:13;12.40;99.90
8313;DHT22;4194;43.408;24.626;2023-04-25T01:53:40;13.20;99.90
8313;DHT22;4194;43.408;24.626;2023-04-25T01:56:06;14.40;99.90
8313;DHT22;4194;43.408;24.626;2023-04-25T01:58:32;13.10;99.90
8313;DHT22;4194;43.408;24.626;2023-04-25T02:00:58;13.30;99.90
8313;DHT22;4194;43.408;24.626;2023-04-25T02:03:24;13.20;99.90
8313;DHT22;4194;43.408;24.626;2023-04-25T02:05:49;12.60;99.90
8313;DHT22;4194;43.408;24.626;2023-04-25T02:08:16;13.10;99.90
8313;DHT22;4194;43.408;24.626;2023-04-25T02:10:42;14.00;99.90
8313;DHT22;4194;43.408;24.626;2023-04-25T02:13:08;13.10;99.90
8313;DHT22;4194;43.408;24.626;2023-04-25T02:15:34;13.10;99.90
8313;DHT22;4194;43.408;24.626;2023-04-25T02:18:00;13.10;99.90
8313;DHT22;4194;43.408;24.626;2023-04-25T02:20:26;12.70;99.90
8313;DHT22;4194;43.408;24.626;2023-04-25T02:22:52;13.00;99.90
8313;DHT22;4194;43.408;24.626;2023-04-25T02:25:19;13.40;99.90
8313;DHT22;4194;43.408;24.626;2023-04-25T02:27:46;13.60;99.90
8313;DHT22;4194;43.408;24.626;2023-04-25T02:30:12;13.00;99.90
8313;DHT22;4194;43.408;24.626;2023-04-25T02:32:39;13.00;99.90
8313;DHT22;4194;43.408;24.626;2023-04-25T02:35:05;13.00;99.90
8313;DHT22;4194;43.408;24.626;2023-04-25T02:37:32;12.60;99.90
8313;DHT22;4194;43.408;24.626;2023-04-25T02:39:58;13.00;99.90
8313;DHT22;4194;43.408;24.626;2023-04-25T02:42:24;13.30;99.90
8313;DHT22;4194;43.408;24.626;2023-04-25T02:44:49;13.00;99.90
8313;DHT22;4194;43.408;24.626;2023-04-25T02:47:15;12.20;99.90
8313;DHT22;4194;43.408;24.626;2023-04-25T02:49:41;13.00;99.90
8313;DHT22;4194;43.408;24.626;2023-04-25T02:52:06;13.00;99.90
8313;DHT22;4194;43.408;24.626;2023-04-25T02:54:32;12.40;99.90
8313;DHT22;4194;43.408;24.626;2023-04-25T02:56:58;13.00;99.90
8313;DHT22;4194;43.408;24.626;2023-04-25T02:59:24;13.00;99.90
8313;DHT22;4194;43.408;24.626;2023-04-25T03:01:49;13.10;99.90
8313;DHT22;4194;43.408;24.626;2023-04-25T03:04:15;13.00;99.90
8313;DHT22;4194;43.408;24.626;2023-04-25T03:06:41;12.80;99.90
8313;DHT22;4194;43.408;24.626;2023-04-25T03:09:06;13.10;99.90
8313;DHT22;4194;43.408;24.626;2023-04-25T03:11:32;13.60;99.90
8313;DHT22;4194;43.408;24.626;2023-04-25T03:13:58;14.60;99.90
8313;DHT22;4194;43.408;24.626;2023-04-25T03:16:24;13.50;99.90
8313;DHT22;4194;43.408;24.626;2023-04-25T03:18:49;12.40;99.90
8313;DHT22;4194;43.408;24.626;2023-04-25T03:21:16;13.30;99.90
8313;DHT22;4194;43.408;24.626;2023-04-25T03:23:42;12.30;99.90
8313;DHT22;4194;43.408;24.626;2023-04-25T03:26:07;13.20;99.90
8313;DHT22;4194;43.408;24.626;2023-04-25T03:28:33;13.50;99.90
8313;DHT22;4194;43.408;24.626;2023-04-25T03:30:59;13.20;99.90
8313;DHT22;4194;43.408;24.626;2023-04-25T03:33:24;13.10;99.90
8313;DHT22;4194;43.408;24.626;2023-04-25T03:35:50;13.00;99.90
8313;DHT22;4194;43.408;24.626;2023-04-25T03:38:16;12.40;99.90
8313;DHT22;4194;43.408;24.626;2023-04-25T03:40:42;14.50;99.90
8313;DHT22;4194;43.408;24.626;2023-04-25T03:43:08;13.70;99.90
8313;DHT22;4194;43.408;24.626;2023-04-25T03:45:34;13.10;99.90
8313;DHT22;4194;43.408;24.626;2023-04-25T03:47:59;12.70;99.90
8313;DHT22;4194;43.408;24.626;2023-04-25T03:50:25;14.50;99.90
8313;DHT22;4194;43.408;24.626;2023-04-25T03:52:51;12.10;99.90
8313;DHT22;4194;43.408;24.626;2023-04-25T03:55:16;14.70;99.90
8313;DHT22;4194;43.408;24.626;2023-04-25T03:57:42;13.10;99.90
8313;DHT22;4194;43.408;24.626;2023-04-25T04:00:08;14.70;99.90
8313;DHT22;4194;43.408;24.626;2023-04-25T04:02:35;13.20;99.90
8313;DHT22;4194;43.408;24.626;2023-04-25T04:05:03;13.20;99.90
8313;DHT22;4194;43.408;24.626;2023-04-25T04:07:29;13.20;99.90
8313;DHT22;4194;43.408;24.626;2023-04-25T04:09:55;14.80;99.90
8313;DHT22;4194;43.408;24.626;2023-04-25T04:12:20;13.00;99.90
8313;DHT22;4194;43.408;24.626;2023-04-25T04:14:46;12.80;99.90
8313;DHT22;4194;43.408;24.626;2023-04-25T04:17:12;14.60;99.90
8313;DHT22;4194;43.408;24.626;2023-04-25T04:19:37;13.30;99.90
8313;DHT22;4194;43.408;24.626;2023-04-25T04:22:03;12.70;99.90
8313;DHT22;4194;43.408;24.626;2023-04-25T04:24:28;12.90;99.90
8313;DHT22;4194;43.408;24.626;2023-04-25T04:26:54;13.40;99.90
8313;DHT22;4194;43.408;24.626;2023-04-25T04:29:20;14.10;99.90
8313;DHT22;4194;43.408;24.626;2023-04-25T04:31:50;13.10;99.90
8313;DHT22;4194;43.408;24.626;2023-04-25T04:34:16;14.90;99.90
8313;DHT22;4194;43.408;24.626;2023-04-25T04:36:44;15.10;99.90
8313;DHT22;4194;43.408;24.626;2023-04-25T04:39:12;13.80;99.90
8313;DHT22;4194;43.408;24.626;2023-04-25T04:41:37;13.70;99.90
8313;DHT22;4194;43.408;24.626;2023-04-25T04:44:04;14.10;99.90
8313;DHT22;4194;43.408;24.626;2023-04-25T04:46:29;13.90;99.90
8313;DHT22;4194;43.408;24.626;2023-04-25T04:49:06;13.90;99.90
8313;DHT22;4194;43.408;24.626;2023-04-25T04:51:31;14.00;99.90
8313;DHT22;4194;43.408;24.626;2023-04-25T04:53:58;15.30;99.90
8313;DHT22;4194;43.408;24.626;2023-04-25T04:56:31;14.00;99.90
8313;DHT22;4194;43.408;24.626;2023-04-25T04:58:57;13.60;99.90
8313;DHT22;4194;43.408;24.626;2023-04-25T05:01:23;14.40;99.90
8313;DHT22;4194;43.408;24.626;2023-04-25T05:03:49;14.60;99.90
8313;DHT22;4194;43.408;24.626;2023-04-25T05:08:41;14.50;99.90
8313;DHT22;4194;43.408;24.626;2023-04-25T05:11:06;14.60;99.90
8313;DHT22;4194;43.408;24.626;2023-04-25T05:13:32;14.80;99.90
8313;DHT22;4194;43.408;24.626;2023-04-25T05:15:58;15.00;99.90
8313;DHT22;4194;43.408;24.626;2023-04-25T05:18:23;14.60;99.90
8313;DHT22;4194;43.408;24.626;2023-04-25T05:20:49;14.90;99.90
8313;DHT22;4194;43.408;24.626;2023-04-25T05:23:15;15.90;99.90
8313;DHT22;4194;43.408;24.626;2023-04-25T05:25:41;14.80;99.90
8313;DHT22;4194;43.408;24.626;2023-04-25T05:28:07;15.20;99.90
8313;DHT22;4194;43.408;24.626;2023-04-25T05:30:34;14.50;99.90
8313;DHT22;4194;43.408;24.626;2023-04-25T05:33:00;14.60;99.90
8313;DHT22;4194;43.408;24.626;2023-04-25T05:35:26;14.40;99.90
8313;DHT22;4194;43.408;24.626;2023-04-25T05:37:51;14.00;99.90
8313;DHT22;4194;43.408;24.626;2023-04-25T05:40:17;14.30;99.90
8313;DHT22;4194;43.408;24.626;2023-04-25T05:42:43;14.50;99.90
8313;DHT22;4194;43.408;24.626;2023-04-25T05:45:08;13.90;99.90
8313;DHT22;4194;43.408;24.626;2023-04-25T05:50:02;14.40;99.90
8313;DHT22;4194;43.408;24.626;2023-04-25T05:52:28;14.80;99.90
8313;DHT22;4194;43.408;24.626;2023-04-25T05:54:54;14.80;99.90
8313;DHT22;4194;43.408;24.626;2023-04-25T05:57:24;14.80;99.90
8313;DHT22;4194;43.408;24.626;2023-04-25T05:59:51;14.40;99.90
8313;DHT22;4194;43.408;24.626;2023-04-25T06:02:17;15.10;99.90
8313;DHT22;4194;43.408;24.626;2023-04-25T06:04:43;14.70;99.90
8313;DHT22;4194;43.408;24.626;2023-04-25T06:07:09;14.90;99.90
8313;DHT22;4194;43.408;24.626;2023-04-25T06:09:34;15.20;99.90
8313;DHT22;4194;43.408;24.626;2023-04-25T06:12:00;15.00;99.90
8313;DHT22;4194;43.408;24.626;2023-04-25T06:14:27;15.30;99.90
8313;DHT22;4194;43.408;24.626;2023-04-25T06:16:53;16.60;99.90
8313;DHT22;4194;43.408;24.626;2023-04-25T06:19:18;16.10;99.90
8313;DHT22;4194;43.408;24.626;2023-04-25T06:21:44;16.30;99.90
8313;DHT22;4194;43.408;24.626;2023-04-25T06:24:10;16.30;99.90
8313;DHT22;4194;43.408;24.626;2023-04-25T06:26:35;16.40;99.90
8313;DHT22;4194;43.408;24.626;2023-04-25T06:29:01;16.10;99.90
8313;DHT22;4194;43.408;24.626;2023-04-25T06:31:27;16.30;99.90
8313;DHT22;4194;43.408;24.626;2023-04-25T06:33:54;17.80;99.90
8313;DHT22;4194;43.408;24.626;2023-04-25T06:36:20;17.80;99.90
8313;DHT22;4194;43.408;24.626;2023-04-25T06:38:51;17.10;99.90
8313;DHT22;4194;43.408;24.626;2023-04-25T06:41:17;15.90;99.80
8313;DHT22;4194;43.408;24.626;2023-04-25T06:46:09;17.20;99.90
8313;DHT22;4194;43.408;24.626;2023-04-25T06:48:35;16.90;99.40
8313;DHT22;4194;43.408;24.626;2023-04-25T06:51:01;17.00;99.60
8313;DHT22;4194;43.408;24.626;2023-04-25T06:53:27;16.60;99.90
8313;DHT22;4194;43.408;24.626;2023-04-25T06:55:52;17.20;99.70
8313;DHT22;4194;43.408;24.626;2023-04-25T06:58:18;16.90;98.40
8313;DHT22;4194;43.408;24.626;2023-04-25T07:00:44;17.80;99.10
8313;DHT22;4194;43.408;24.626;2023-04-25T07:03:10;18.60;99.90
8313;DHT22;4194;43.408;24.626;2023-04-25T07:05:35;17.10;99.40
8313;DHT22;4194;43.408;24.626;2023-04-25T07:08:01;16.70;98.90
8313;DHT22;4194;43.408;24.626;2023-04-25T07:10:28;17.70;98.50
8313;DHT22;4194;43.408;24.626;2023-04-25T07:12:53;18.80;97.30
8313;DHT22;4194;43.408;24.626;2023-04-25T07:15:19;17.80;97.10
8313;DHT22;4194;43.408;24.626;2023-04-25T07:17:45;17.90;95.80
8313;DHT22;4194;43.408;24.626;2023-04-25T07:20:11;18.20;95.20
8313;DHT22;4194;43.408;24.626;2023-04-25T07:22:37;18.60;93.60
8313;DHT22;4194;43.408;24.626;2023-04-25T07:25:02;18.80;93.10
8313;DHT22;4194;43.408;24.626;2023-04-25T07:27:29;20.20;93.80
8313;DHT22;4194;43.408;24.626;2023-04-25T07:29:55;18.80;93.50
8313;DHT22;4194;43.408;24.626;2023-04-25T07:32:21;18.70;92.20
8313;DHT22;4194;43.408;24.626;2023-04-25T07:34:47;18.80;92.30
8313;DHT22;4194;43.408;24.626;2023-04-25T07:37:13;18.60;92.30
8313;DHT22;4194;43.408;24.626;2023-04-25T07:39:41;18.40;92.90
8313;DHT22;4194;43.408;24.626;2023-04-25T07:42:07;18.30;93.20
8313;DHT22;4194;43.408;24.626;2023-04-25T07:44:34;17.10;92.70
8313;DHT22;4194;43.408;24.626;2023-04-25T07:47:07;18.30;93.60
8313;DHT22;4194;43.408;24.626;2023-04-25T07:49:37;18.20;92.80
8313;DHT22;4194;43.408;24.626;2023-04-25T07:52:04;18.60;91.10
8313;DHT22;4194;43.408;24.626;2023-04-25T07:54:31;18.60;91.40
8313;DHT22;4194;43.408;24.626;2023-04-25T07:56:57;19.40;87.80
8313;DHT22;4194;43.408;24.626;2023-04-25T07:59:22;19.00;87.40
8313;DHT22;4194;43.408;24.626;2023-04-25T08:04:14;19.40;85.10
8313;DHT22;4194;43.408;24.626;2023-04-25T08:06:40;19.50;86.60
8313;DHT22;4194;43.408;24.626;2023-04-25T08:09:06;19.50;87.60
8313;DHT22;4194;43.408;24.626;2023-04-25T08:11:32;19.60;89.50
8313;DHT22;4194;43.408;24.626;2023-04-25T08:13:58;18.60;87.80
8313;DHT22;4194;43.408;24.626;2023-04-25T08:16:23;18.50;87.80
8313;DHT22;4194;43.408;24.626;2023-04-25T08:18:50;19.90;89.80
8313;DHT22;4194;43.408;24.626;2023-04-25T08:21:16;19.50;90.00
8313;DHT22;4194;43.408;24.626;2023-04-25T08:23:42;19.70;84.70
8313;DHT22;4194;43.408;24.626;2023-04-25T08:26:07;19.90;82.50
8313;DHT22;4194;43.408;24.626;2023-04-25T08:28:33;19.90;83.10
8313;DHT22;4194;43.408;24.626;2023-04-25T08:30:59;20.40;82.70
8313;DHT22;4194;43.408;24.626;2023-04-25T08:33:25;20.10;81.50
8313;DHT22;4194;43.408;24.626;2023-04-25T08:35:51;21.00;80.40
8313;DHT22;4194;43.408;24.626;2023-04-25T08:38:17;21.50;78.30
8313;DHT22;4194;43.408;24.626;2023-04-25T08:40:43;21.90;77.20
8313;DHT22;4194;43.408;24.626;2023-04-25T08:43:09;21.00;78.00
8313;DHT22;4194;43.408;24.626;2023-04-25T08:45:42;20.90;78.70
8313;DHT22;4194;43.408;24.626;2023-04-25T08:48:12;20.90;79.50
8313;DHT22;4194;43.408;24.626;2023-04-25T08:51:04;19.50;79.70
8313;DHT22;4194;43.408;24.626;2023-04-25T08:53:32;19.40;80.10
8313;DHT22;4194;43.408;24.626;2023-04-25T08:56:01;20.70;82.00
8313;DHT22;4194;43.408;24.626;2023-04-25T08:58:28;20.80;82.50
8313;DHT22;4194;43.408;24.626;2023-04-25T09:03:20;20.00;80.40
8313;DHT22;4194;43.408;24.626;2023-04-25T09:05:45;18.60;79.10
8313;DHT22;4194;43.408;24.626;2023-04-25T09:10:38;19.10;79.40
8313;DHT22;4194;43.408;24.626;2023-04-25T09:13:12;20.10;80.20
8313;DHT22;4194;43.408;24.626;2023-04-25T09:15:51;20.30;80.50
8313;DHT22;4194;43.408;24.626;2023-04-25T09:20:52;20.10;80.30
8313;DHT22;4194;43.408;24.626;2023-04-25T09:23:19;19.40;80.20
8313;DHT22;4194;43.408;24.626;2023-04-25T09:25:48;20.80;81.90
8313;DHT22;4194;43.408;24.626;2023-04-25T09:28:14;20.50;81.80
8313;DHT22;4194;43.408;24.626;2023-04-25T09:30:39;19.60;80.40
8313;DHT22;4194;43.408;24.626;2023-04-25T09:33:07;22.00;80.20
8313;DHT22;4194;43.408;24.626;2023-04-25T09:35:41;21.40;77.20
8313;DHT22;4194;43.408;24.626;2023-04-25T09:38:13;21.30;74.10
8313;DHT22;4194;43.408;24.626;2023-04-25T09:40:47;20.70;71.90
8313;DHT22;4194;43.408;24.626;2023-04-25T09:43:21;23.30;74.20
8313;DHT22;4194;43.408;24.626;2023-04-25T09:45:47;22.80;74.90
8313;DHT22;4194;43.408;24.626;2023-04-25T09:48:21;21.10;75.40
8313;DHT22;4194;43.408;24.626;2023-04-25T09:51:06;20.70;76.00
8313;DHT22;4194;43.408;24.626;2023-04-25T09:53:34;20.80;77.60
8313;DHT22;4194;43.408;24.626;2023-04-25T09:56:04;19.70;75.20
8313;DHT22;4194;43.408;24.626;2023-04-25T09:58:31;21.50;76.90
8313;DHT22;4194;43.408;24.626;2023-04-25T10:01:01;21.00;77.20
8313;DHT22;4194;43.408;24.626;2023-04-25T10:03:32;20.90;74.80
8313;DHT22;4194;43.408;24.626;2023-04-25T10:06:04;20.10;75.20
8313;DHT22;4194;43.408;24.626;2023-04-25T10:08:33;20.80;75.60
8313;DHT22;4194;43.408;24.626;2023-04-25T10:11:01;21.80;79.10
8313;DHT22;4194;43.408;24.626;2023-04-25T10:13:29;22.00;79.70
8313;DHT22;4194;43.408;24.626;2023-04-25T10:16:03;21.30;78.00
8313;DHT22;4194;43.408;24.626;2023-04-25T10:18:30;21.90;77.40
8313;DHT22;4194;43.408;24.626;2023-04-25T10:21:01;21.90;73.70
8313;DHT22;4194;43.408;24.626;2023-04-25T10:23:30;21.20;73.40
8313;DHT22;4194;43.408;24.626;2023-04-25T10:25:57;21.90;73.90
8313;DHT22;4194;43.408;24.626;2023-04-25T10:28:23;21.40;72.80
8313;DHT22;4194;43.408;24.626;2023-04-25T10:31:02;23.70;75.30
8313;DHT22;4194;43.408;24.626;2023-04-25T10:33:36;22.40;74.30
8313;DHT22;4194;43.408;24.626;2023-04-25T10:36:17;24.20;74.40
8313;DHT22;4194;43.408;24.626;2023-04-25T10:38:44;23.80;71.40
8313;DHT22;4194;43.408;24.626;2023-04-25T10:41:12;24.50;71.10
8313;DHT22;4194;43.408;24.626;2023-04-25T10:43:49;23.80;68.20
8313;DHT22;4194;43.408;24.626;2023-04-25T10:46:23;24.30;69.20
8313;DHT22;4194;43.408;24.626;2023-04-25T10:48:50;24.30;64.60
8313;DHT22;4194;43.408;24.626;2023-04-25T10:51:29;24.50;66.40
8313;DHT22;4194;43.408;24.626;2023-04-25T10:59:09;23.10;71.50
8313;DHT22;4194;43.408;24.626;2023-04-25T11:01:40;21.90;73.90
8313;DHT22;4194;43.408;24.626;2023-04-25T11:04:18;19.50;73.50
8313;DHT22;4194;43.408;24.626;2023-04-25T11:09:39;21.20;79.00
8313;DHT22;4194;43.408;24.626;2023-04-25T11:12:07;21.20;82.70
8313;DHT22;4194;43.408;24.626;2023-04-25T11:14:33;19.90;79.90
8313;DHT22;4194;43.408;24.626;2023-04-25T11:16:59;20.70;80.00
8313;DHT22;4194;43.408;24.626;2023-04-25T11:19:27;20.80;82.50
8313;DHT22;4194;43.408;24.626;2023-04-25T11:22:00;22.00;80.70
8313;DHT22;4194;43.408;24.626;2023-04-25T11:24:30;20.90;78.50
8313;DHT22;4194;43.408;24.626;2023-04-25T11:26:58;23.10;81.10
8313;DHT22;4194;43.408;24.626;2023-04-25T11:29:28;22.10;71.50
8313;DHT22;4194;43.408;24.626;2023-04-25T11:31:55;23.40;67.40
8313;DHT22;4194;43.408;24.626;2023-04-25T11:34:24;25.00;67.50
8313;DHT22;4194;43.408;24.626;2023-04-25T11:36:51;25.80;66.40
8313;DHT22;4194;43.408;24.626;2023-04-25T11:39:20;26.20;63.40
8313;DHT22;4194;43.408;24.626;2023-04-25T11:41:46;26.10;64.00
8313;DHT22;4194;43.408;24.626;2023-04-25T11:44:15;26.70;59.20
8313;DHT22;4194;43.408;24.626;2023-04-25T11:46:42;27.10;60.20
8313;DHT22;4194;43.408;24.626;2023-04-25T11:49:08;26.30;58.60
8313;DHT22;4194;43.408;24.626;2023-04-25T11:51:40;26.00;58.40
8313;DHT22;4194;43.408;24.626;2023-04-25T11:54:06;27.70;58.30
8313;DHT22;4194;43.408;24.626;2023-04-25T11:56:32;27.00;57.70
8313;DHT22;4194;43.408;24.626;2023-04-25T11:59:01;28.70;57.70
8313;DHT22;4194;43.408;24.626;2023-04-25T12:01:28;26.40;55.70
8313;DHT22;4194;43.408;24.626;2023-04-25T12:03:55;27.50;56.10
8313;DHT22;4194;43.408;24.626;2023-04-25T12:06:21;28.50;57.60
8313;DHT22;4194;43.408;24.626;2023-04-25T12:09:06;28.20;57.70
8313;DHT22;4194;43.408;24.626;2023-04-25T12:11:32;27.60;57.40
8313;DHT22;4194;43.408;24.626;2023-04-25T12:14:04;27.70;57.00
8313;DHT22;4194;43.408;24.626;2023-04-25T12:16:42;27.50;57.30
8313;DHT22;4194;43.408;24.626;2023-04-25T12:19:08;26.50;58.10
8313;DHT22;4194;43.408;24.626;2023-04-25T12:21:33;26.00;59.80
8313;DHT22;4194;43.408;24.626;2023-04-25T12:24:17;24.20;59.80
8313;DHT22;4194;43.408;24.626;2023-04-25T12:29:23;23.50;66.40
8313;DHT22;4194;43.408;24.626;2023-04-25T12:31:50;21.90;66.60
8313;DHT22;4194;43.408;24.626;2023-04-25T12:34:17;21.70;68.60
8313;DHT22;4194;43.408;24.626;2023-04-25T12:36:43;21.90;69.80
8313;DHT22;4194;43.408;24.626;2023-04-25T12:39:10;20.20;70.00
8313;DHT22;4194;43.408;24.626;2023-04-25T12:41:40;20.40;69.00
8313;DHT22;4194;43.408;24.626;2023-04-25T12:44:06;19.70;65.80
8313;DHT22;4194;43.408;24.626;2023-04-25T12:46:32;18.30;68.90
8313;DHT22;4194;43.408;24.626;2023-04-25T12:48:57;17.60;75.70
8313;DHT22;4194;43.408;24.626;2023-04-25T12:51:23;16.90;85.50
8313;DHT22;4194;43.408;24.626;2023-04-25T12:53:51;15.10;99.30
8313;DHT22;4194;43.408;24.626;2023-04-25T12:56:17;15.30;99.90
8313;DHT22;4194;43.408;24.626;2023-04-25T12:58:43;15.20;99.90
8313;DHT22;4194;43.408;24.626;2023-04-25T13:01:09;15.70;99.90
8313;DHT22;4194;43.408;24.626;2023-04-25T13:03:35;15.50;99.90
8313;DHT22;4194;43.408;24.626;2023-04-25T13:06:01;14.00;99.90
8313;DHT22;4194;43.408;24.626;2023-04-25T13:08:26;14.30;99.90
8313;DHT22;4194;43.408;24.626;2023-04-25T13:10:52;14.50;99.90
8313;DHT22;4194;43.408;24.626;2023-04-25T13:13:18;13.70;99.90
8313;DHT22;4194;43.408;24.626;2023-04-25T13:15:43;13.90;99.90
8313;DHT22;4194;43.408;24.626;2023-04-25T13:18:09;14.20;99.90
8313;DHT22;4194;43.408;24.626;2023-04-25T13:20:35;13.90;99.90
8313;DHT22;4194;43.408;24.626;2023-04-25T13:23:01;13.50;99.90
8313;DHT22;4194;43.408;24.626;2023-04-25T13:25:26;14.00;99.90
8313;DHT22;4194;43.408;24.626;2023-04-25T13:27:52;13.60;99.90
8313;DHT22;4194;43.408;24.626;2023-04-25T13:30:18;13.60;99.90
8313;DHT22;4194;43.408;24.626;2023-04-25T13:32:43;13.10;99.90
8313;DHT22;4194;43.408;24.626;2023-04-25T13:35:11;14.40;99.90
8313;DHT22;4194;43.408;24.626;2023-04-25T13:37:38;12.60;99.90
8313;DHT22;4194;43.408;24.626;2023-04-25T13:40:09;12.60;99.90
8313;DHT22;4194;43.408;24.626;2023-04-25T13:42:36;13.30;99.90
8313;DHT22;4194;43.408;24.626;2023-04-25T13:45:02;13.50;99.90
8313;DHT22;4194;43.408;24.626;2023-04-25T13:47:29;13.40;99.90
8313;DHT22;4194;43.408;24.626;2023-04-25T13:49:55;12.30;99.90
8313;DHT22;4194;43.408;24.626;2023-04-25T13:52:21;13.20;99.90
8313;DHT22;4194;43.408;24.626;2023-04-25T13:54:47;12.40;99.90
8313;DHT22;4194;43.408;24.626;2023-04-25T13:57:12;13.30;99.90
8313;DHT22;4194;43.408;24.626;2023-04-25T13:59:38;13.90;99.90
8313;DHT22;4194;43.408;24.626;2023-04-25T14:02:04;14.70;99.90
8313;DHT22;4194;43.408;24.626;2023-04-25T14:04:30;17.60;99.90
8313;DHT22;4194;43.408;24.626;2023-04-25T14:06:56;18.30;99.90
8313;DHT22;4194;43.408;24.626;2023-04-25T14:09:22;18.00;99.90
8313;DHT22;4194;43.408;24.626;2023-04-25T14:11:51;18.90;99.90
8313;DHT22;4194;43.408;24.626;2023-04-25T14:14:18;20.10;99.90
8313;DHT22;4194;43.408;24.626;2023-04-25T14:16:44;22.30;99.00
8313;DHT22;4194;43.408;24.626;2023-04-25T14:19:10;23.90;90.70
8313;DHT22;4194;43.408;24.626;2023-04-25T14:21:35;23.90;90.70
8313;DHT22;4194;43.408;24.626;2023-04-25T14:24:01;24.00;91.40
8313;DHT22;4194;43.408;24.626;2023-04-25T14:26:27;23.80;91.80
8313;DHT22;4194;43.408;24.626;2023-04-25T14:28:53;26.40;82.80
8313;DHT22;4194;43.408;24.626;2023-04-25T14:31:18;29.70;74.20
8313;DHT22;4194;43.408;24.626;2023-04-25T14:33:44;31.40;61.20
8313;DHT22;4194;43.408;24.626;2023-04-25T14:36:11;32.20;57.90
8313;DHT22;4194;43.408;24.626;2023-04-25T14:38:36;32.80;57.30
8313;DHT22;4194;43.408;24.626;2023-04-25T14:41:02;33.60;56.60
8313;DHT22;4194;43.408;24.626;2023-04-25T14:43:28;33.80;53.30
8313;DHT22;4194;43.408;24.626;2023-04-25T14:45:54;33.60;53.90
8313;DHT22;4194;43.408;24.626;2023-04-25T14:48:19;34.00;53.10
8313;DHT22;4194;43.408;24.626;2023-04-25T14:50:46;34.30;53.40
8313;DHT22;4194;43.408;24.626;2023-04-25T14:53:12;35.20;50.50
8313;DHT22;4194;43.408;24.626;2023-04-25T14:55:38;31.10;52.10
8313;DHT22;4194;43.408;24.626;2023-04-25T14:58:04;30.70;54.80
8313;DHT22;4194;43.408;24.626;2023-04-25T15:00:30;31.70;53.00
8313;DHT22;4194;43.408;24.626;2023-04-25T15:02:57;30.80;56.20
8313;DHT22;4194;43.408;24.626;2023-04-25T15:05:23;31.20;53.60
8313;DHT22;4194;43.408;24.626;2023-04-25T15:07:49;30.90;55.00
8313;DHT22;4194;43.408;24.626;2023-04-25T15:10:16;30.30;56.00
8313;DHT22;4194;43.408;24.626;2023-04-25T15:12:45;26.90;63.00
8313;DHT22;4194;43.408;24.626;2023-04-25T15:15:11;25.60;66.00
8313;DHT22;4194;43.408;24.626;2023-04-25T15:17:38;24.40;67.60
8313;DHT22;4194;43.408;24.626;2023-04-25T15:20:11;22.70;72.80
8313;DHT22;4194;43.408;24.626;2023-04-25T15:22:40;22.00;79.90
8313;DHT22;4194;43.408;24.626;2023-04-25T15:25:09;20.70;85.90
8313;DHT22;4194;43.408;24.626;2023-04-25T15:27:37;19.50;90.90
8313;DHT22;4194;43.408;24.626;2023-04-25T15:30:07;18.20;94.10
8313;DHT22;4194;43.408;24.626;2023-04-25T15:32:33;18.30;96.90
8313;DHT22;4194;43.408;24.626;2023-04-25T15:35:01;18.20;99.90
8313;DHT22;4194;43.408;24.626;2023-04-25T15:37:28;17.90;99.90
8313;DHT22;4194;43.408;24.626;2023-04-25T15:40:14;17.40;99.90
8313;DHT22;4194;43.408;24.626;2023-04-25T15:42:47;17.60;99.90
8313;DHT22;4194;43.408;24.626;2023-04-25T15:45:16;17.50;99.90
8313;DHT22;4194;43.408;24.626;2023-04-25T15:47:42;16.00;99.90
8313;DHT22;4194;43.408;24.626;2023-04-25T15:52:36;15.70;99.90
8313;DHT22;4194;43.408;24.626;2023-04-25T15:55:05;15.80;99.90
8313;DHT22;4194;43.408;24.626;2023-04-25T15:57:33;17.20;99.90
8313;DHT22;4194;43.408;24.626;2023-04-25T16:00:00;16.80;99.90
8313;DHT22;4194;43.408;24.626;2023-04-25T16:02:26;17.10;99.90
8313;DHT22;4194;43.408;24.626;2023-04-25T16:04:51;17.30;99.90
8313;DHT22;4194;43.408;24.626;2023-04-25T16:07:17;17.60;99.90
8313;DHT22;4194;43.408;24.626;2023-04-25T16:09:43;17.30;99.90
8313;DHT22;4194;43.408;24.626;2023-04-25T16:12:10;17.20;99.90
8313;DHT22;4194;43.408;24.626;2023-04-25T16:14:36;17.20;99.90
8313;DHT22;4194;43.408;24.626;2023-04-25T16:19:28;16.60;99.90